.
WxDataArchive / Data Records for 2013-10-23
2013-10-22 October 2013 2013-10-24

Data Records for Wednesday, 23 October 2013

Time	Temp	Chill	HIndex	Humid	Dewpt	 Wind 	HiWind	WindDir	Rain 	Barom 
-----	----	-----	------	-----	-----	------	------	-------	-----	----- 
00:00	36.2	36.2	36.2	92	34.1	0	0	---	0.00	29.900 
00:05	36.3	36.3	36.3	92	34.2	0	0	---	0.00	29.900 
00:10	36.3	36.3	36.3	92	34.2	0	0	---	0.00	29.900 
00:15	36.3	36.3	36.3	92	34.2	0	0	---	0.00	29.895 
00:20	36.3	36.3	36.3	92	34.2	0	0	---	0.00	29.895 
00:25	36.3	36.3	36.3	93	34.5	0	0	---	0.00	29.895 
00:30	36.3	36.3	36.3	93	34.5	0	0	---	0.00	29.891 
00:35	36.3	36.3	36.3	92	34.2	0	0	---	0.00	29.891 
00:40	36.3	36.3	36.3	93	34.5	0	0	---	0.00	29.891 
00:45	36.3	36.3	36.3	93	34.5	0	0	---	0.00	29.883 
00:50	36.3	36.3	36.3	93	34.5	0	0	---	0.00	29.883 
00:55	36.3	36.3	36.3	93	34.5	0	0	---	0.00	29.883 
01:00	36.3	36.3	36.3	93	34.5	0	1	292	0.00	29.877 
01:05	36.3	36.3	36.3	93	34.5	0	0	---	0.00	29.877 
01:10	36.3	36.3	36.3	93	34.5	0	0	---	0.00	29.877 
01:15	36.5	36.5	36.5	93	34.7	0	0	---	0.00	29.869 
01:20	36.5	36.5	36.5	93	34.7	0	0	---	0.00	29.869 
01:25	36.5	36.5	36.5	93	34.7	0	0	---	0.01	29.869 
01:30	36.5	36.5	36.5	93	34.7	0	0	---	0.00	29.864 
01:35	36.3	36.3	36.3	93	34.5	0	0	---	0.00	29.864 
01:40	36.3	36.3	36.3	93	34.5	0	0	---	0.00	29.864 
01:45	36.3	36.3	36.3	93	34.5	0	0	---	0.00	29.865 
01:50	36.3	36.3	36.3	93	34.5	0	0	---	0.00	29.865 
01:55	36.3	36.3	36.3	93	34.5	0	0	---	0.00	29.865 
02:00	36.3	36.3	36.3	93	34.5	0	0	---	0.00	29.864 
02:05	36.3	36.3	36.3	93	34.5	0	0	---	0.00	29.864 
02:10	36.3	36.3	36.3	93	34.5	0	0	---	0.00	29.864 
02:15	36.2	36.2	36.2	93	34.4	0	0	---	0.00	29.861 
02:20	36.2	36.2	36.2	93	34.4	0	0	---	0.00	29.861 
02:25	36.2	36.2	36.2	93	34.4	0	0	---	0.00	29.861 
02:30	36.2	36.2	36.2	93	34.4	0	0	---	0.00	29.853 
02:35	36.0	36.0	36.0	93	34.2	0	0	---	0.00	29.853 
02:40	36.0	36.0	36.0	93	34.2	0	0	---	0.00	29.853 
02:45	36.0	36.0	36.0	93	34.2	0	0	---	0.00	29.850 
02:50	36.0	36.0	36.0	93	34.2	0	0	---	0.00	29.850 
02:55	36.0	36.0	36.0	93	34.2	0	0	---	0.00	29.850 
03:00	36.2	36.2	36.2	93	34.4	0	0	---	0.00	29.848 
03:05	36.2	36.2	36.2	93	34.4	0	0	---	0.00	29.848 
03:10	36.2	----	36.2	93	34.4	---	0	---	0.00	29.848 
03:15	36.2	----	36.2	93	34.4	---	0	---	0.00	29.847 
03:20	36.2	----	36.2	93	34.4	---	0	---	0.00	29.847 
03:25	----	----	----	100	----	---	0	---	0.00	29.847 
03:30	36.3	36.3	36.3	93	34.5	0	0	---	0.00	29.834 
03:35	36.3	36.3	36.3	93	34.5	0	0	---	0.00	29.834 
03:40	36.3	36.3	36.3	93	34.5	0	0	---	0.00	29.834 
03:45	36.3	36.3	36.3	93	34.5	0	1	292	0.00	29.840 
03:50	36.3	36.3	36.3	94	34.7	0	1	292	0.00	29.840 
03:55	36.3	36.3	36.3	94	34.7	0	1	292	0.00	29.840 
04:00	36.3	36.3	36.3	94	34.7	0	1	292	0.00	29.831 
04:05	36.3	36.3	36.3	94	34.7	0	0	---	0.00	29.831 
04:10	36.2	36.2	36.2	94	34.6	0	0	---	0.00	29.831 
04:15	36.2	36.2	36.2	94	34.6	0	0	---	0.00	29.830 
04:20	36.2	36.2	36.2	94	34.6	0	0	---	0.00	29.830 
04:25	36.2	36.2	36.2	94	34.6	0	0	---	0.00	29.830 
04:30	36.0	36.0	36.0	94	34.4	0	0	---	0.00	29.826 
04:35	35.9	35.9	35.9	94	34.3	0	0	---	0.00	29.826 
04:40	35.9	35.9	35.9	94	34.3	0	0	---	0.00	29.826 
04:45	35.9	35.9	35.9	94	34.3	0	0	---	0.00	29.824 
04:50	35.8	35.8	35.8	94	34.2	0	0	---	0.00	29.824 
04:55	35.6	35.6	35.6	94	34.0	0	0	---	0.00	29.824 
05:00	35.6	35.6	35.6	94	34.0	0	0	---	0.00	29.825 
05:05	35.5	35.5	35.5	94	33.9	0	0	---	0.00	29.825 
05:10	35.2	35.2	35.2	93	33.4	0	0	---	0.00	29.825 
05:15	35.2	35.2	35.2	94	33.6	0	0	---	0.00	29.839 
05:20	35.0	35.0	35.0	94	33.5	0	0	---	0.00	29.839 
05:25	35.0	35.0	35.0	94	33.5	0	0	---	0.00	29.839 
05:30	34.9	34.9	34.9	94	33.4	0	0	---	0.00	29.841 
05:35	34.9	34.9	34.9	94	33.4	0	0	---	0.00	29.841 
05:40	34.9	34.9	34.9	94	33.4	0	0	---	0.00	29.841 
05:45	34.9	34.9	34.9	94	33.4	0	0	---	0.00	29.841 
05:50	34.9	34.9	34.9	94	33.4	0	0	---	0.00	29.841 
05:55	34.7	34.7	34.7	94	33.2	0	0	---	0.00	29.841 
06:00	34.6	34.6	34.6	94	33.1	0	0	---	0.00	29.844 
06:05	34.4	34.4	34.4	94	32.9	0	0	---	0.00	29.844 
06:10	34.4	34.4	34.4	94	32.9	0	0	---	0.00	29.844 
06:15	34.3	34.3	34.3	94	32.8	0	0	---	0.00	29.845 
06:20	34.1	34.1	34.1	94	32.6	0	0	---	0.00	29.845 
06:25	34.0	34.0	34.0	94	32.5	0	0	---	0.00	29.845 
06:30	33.7	33.7	33.7	94	32.2	0	0	---	0.00	29.850 
06:35	33.5	33.5	33.5	94	32.0	0	0	---	0.00	29.850 
06:40	33.5	33.5	33.5	94	32.0	0	0	---	0.00	29.850 
06:45	33.4	33.4	33.4	94	31.9	0	0	---	0.00	29.856 
06:50	33.4	33.4	33.4	94	31.9	0	0	---	0.00	29.856 
06:55	33.2	33.2	33.2	94	31.7	0	0	---	0.00	29.856 
07:00	33.2	33.2	33.2	94	31.7	0	0	---	0.00	29.860 
07:05	33.1	33.1	33.1	94	31.6	0	0	---	0.00	29.860 
07:10	33.1	33.1	33.1	94	31.6	0	0	---	0.00	29.860 
07:15	32.9	32.9	32.9	94	31.4	0	0	---	0.00	29.864 
07:20	32.9	32.9	32.9	94	31.4	0	0	---	0.00	29.864 
07:25	32.8	32.8	32.8	94	31.3	0	0	---	0.00	29.864 
07:30	32.8	32.8	32.8	94	31.3	0	1	292	0.00	29.873 
07:35	32.7	32.7	32.7	94	31.2	0	1	292	0.00	29.873 
07:40	32.7	32.7	32.7	94	31.2	0	1	292	0.00	29.873 
07:45	32.7	32.7	32.7	94	31.2	0	1	292	0.00	29.878 
07:50	32.5	32.5	32.5	94	31.0	1	3	292	0.00	29.878 
07:55	32.2	32.2	32.2	94	30.7	1	4	292	0.00	29.878 
08:00	32.1	32.1	32.1	94	30.6	0	1	292	0.00	29.881 
08:05	32.2	32.2	32.2	94	30.7	0	1	292	0.00	29.881 
08:10	32.2	32.2	32.2	94	30.7	0	1	292	0.00	29.881 
08:15	32.4	32.4	32.4	94	30.9	0	2	292	0.00	29.882 
08:20	32.5	32.5	32.5	94	31.0	0	1	292	0.00	29.882 
08:25	32.7	32.7	32.7	94	31.2	0	1	292	0.00	29.882 
08:30	32.8	32.8	32.8	95	31.5	0	1	292	0.00	29.890 
08:35	32.9	32.9	32.9	95	31.6	0	1	292	0.00	29.890 
08:40	33.1	33.1	33.1	95	31.8	0	1	292	0.00	29.890 
08:45	33.4	33.4	33.4	95	32.1	1	4	292	0.00	29.895 
08:50	33.5	33.5	33.5	95	32.2	0	3	292	0.00	29.895 
08:55	33.8	33.8	33.8	95	32.5	0	2	292	0.00	29.895 
09:00	34.0	34.0	34.0	95	32.7	0	2	292	0.00	29.905 
09:05	34.3	34.3	34.3	95	33.0	1	3	292	0.00	29.905 
09:10	34.6	34.6	34.6	95	33.3	0	2	292	0.00	29.905 
09:15	34.7	34.7	34.7	95	33.4	0	2	292	0.00	29.907 
09:20	34.9	34.9	34.9	95	33.6	0	2	292	0.00	29.907 
09:25	35.0	35.0	35.0	95	33.7	1	3	292	0.00	29.907 
09:30	35.0	35.0	35.0	95	33.7	0	1	292	0.00	29.907 
09:35	35.2	35.2	35.2	95	33.9	0	2	292	0.00	29.907 
09:40	35.2	35.2	35.2	95	33.9	0	1	292	0.00	29.907 
09:45	35.5	35.5	35.5	95	34.2	0	0	---	0.00	29.908 
09:50	35.5	35.5	35.5	95	34.2	0	1	292	0.00	29.908 
09:55	35.5	35.5	35.5	95	34.2	0	0	---	0.00	29.908 
10:00	35.8	35.8	35.8	95	34.5	0	1	292	0.00	29.907 
10:05	36.0	36.0	36.0	95	34.7	0	1	292	0.00	29.907 
10:10	36.3	36.3	36.3	96	35.3	0	3	292	0.00	29.907 
10:15	36.3	36.3	36.3	95	35.0	0	2	292	0.00	29.906 
10:20	36.6	36.6	36.6	95	35.3	0	2	292	0.00	29.906 
10:25	36.9	36.9	36.9	95	35.6	0	2	292	0.00	29.906 
10:30	37.2	37.2	37.2	95	35.9	0	2	292	0.00	29.911 
10:35	37.6	37.6	37.6	95	36.3	1	3	292	0.00	29.911 
10:40	37.6	37.6	37.6	95	36.3	1	4	292	0.00	29.911 
10:45	37.9	37.9	37.9	95	36.6	1	3	292	0.00	29.918 
10:50	37.9	37.9	37.9	95	36.6	0	2	292	0.00	29.918 
10:55	37.9	37.9	37.9	94	36.3	0	2	292	0.00	29.918 
11:00	37.9	37.9	37.9	94	36.3	0	3	292	0.00	29.918 
11:05	38.0	38.0	38.0	94	36.4	0	2	292	0.00	29.918 
11:10	38.2	38.2	38.2	93	36.4	0	1	292	0.00	29.918 
11:15	38.5	38.5	38.5	93	36.7	0	2	292	0.00	29.919 
11:20	38.8	38.8	38.8	93	37.0	0	4	292	0.00	29.919 
11:25	38.9	38.9	38.9	93	37.1	0	2	292	0.00	29.919 
11:30	38.8	38.8	38.8	92	36.7	0	3	292	0.00	29.920 
11:35	38.9	38.9	38.9	92	36.8	0	3	292	0.00	29.920 
11:40	38.8	38.8	38.8	91	36.4	1	2	338	0.00	29.920 
11:45	38.8	38.8	38.8	90	36.1	0	3	315	0.00	29.925 
11:50	38.8	38.8	38.8	90	36.1	0	1	315	0.00	29.925 
11:55	38.9	38.9	38.9	90	36.2	0	1	315	0.00	29.925 
12:00	38.9	38.9	38.9	89	35.9	0	2	315	0.00	29.928 
12:05	38.9	38.9	38.9	88	35.7	0	1	315	0.00	29.928 
12:10	39.1	39.1	39.1	88	35.9	0	2	315	0.00	29.928 
12:15	39.3	39.3	39.3	87	35.8	0	2	315	0.00	29.929 
12:20	39.6	39.6	39.6	87	36.1	0	2	315	0.00	29.929 
12:25	40.1	40.1	40.1	86	36.3	0	2	315	0.00	29.929 
12:30	39.9	39.9	39.9	84	35.5	1	4	315	0.00	29.931 
12:35	40.1	40.1	40.1	83	35.4	0	1	315	0.00	29.931 
12:40	40.2	40.2	40.2	83	35.5	0	2	315	0.00	29.931 
12:45	40.5	40.5	40.5	83	35.8	0	2	315	0.00	29.930 
12:50	40.9	40.9	40.9	83	36.1	0	1	315	0.00	29.930 
12:55	41.3	41.3	41.3	82	36.2	0	1	315	0.00	29.930 
13:00	41.6	41.6	41.6	81	36.2	0	2	315	0.00	29.920 
13:05	41.6	41.6	41.6	80	35.9	1	3	315	0.00	29.920 
13:10	41.9	41.9	41.9	79	35.9	0	2	315	0.00	29.920 
13:15	41.9	41.9	41.9	78	35.5	1	3	315	0.00	29.927 
13:20	41.9	41.9	41.9	78	35.5	0	2	315	0.00	29.927 
13:25	41.9	41.9	41.9	77	35.2	0	4	315	0.00	29.927 
13:30	41.8	41.8	41.8	76	34.8	1	3	292	0.00	29.925 
13:35	41.9	41.9	41.9	76	34.9	1	4	292	0.00	29.925 
13:40	42.1	42.1	42.1	75	34.8	1	5	292	0.00	29.925 
13:45	41.9	41.9	41.9	75	34.6	1	4	270	0.00	29.924 
13:50	41.8	41.8	41.8	77	35.1	1	3	270	0.00	29.924 
13:55	41.6	41.6	41.6	77	34.9	1	4	270	0.00	29.924 
14:00	41.8	41.8	41.8	77	35.1	1	4	292	0.00	29.917 
14:05	42.1	42.1	42.1	76	35.1	1	3	292	0.00	29.917 
14:10	42.5	42.5	42.5	76	35.5	1	4	292	0.00	29.917 
14:15	42.9	42.9	42.9	71	34.2	1	3	270	0.00	29.916 
14:20	43.1	43.1	43.1	69	33.6	1	4	292	0.00	29.916 
14:25	42.9	42.9	42.9	68	33.1	2	5	338	0.00	29.916 
14:30	42.9	42.9	42.9	66	32.3	1	4	315	0.00	29.916 
14:35	43.1	43.1	43.1	65	32.1	1	3	315	0.00	29.916 
14:40	43.3	43.3	43.3	65	32.3	1	4	270	0.00	29.916 
14:45	43.6	43.6	43.6	66	33.0	0	3	292	0.00	29.914 
14:50	43.6	43.6	43.6	66	33.0	1	2	292	0.00	29.914 
14:55	43.5	43.5	43.5	70	34.4	0	2	292	0.00	29.914 
15:00	43.2	43.2	43.2	73	35.1	1	3	292	0.00	29.916 
15:05	43.1	43.1	43.1	74	35.4	1	3	292	0.00	29.916 
15:10	42.9	42.9	42.9	75	35.5	1	2	292	0.00	29.916 
15:15	43.1	43.1	43.1	75	35.7	0	2	292	0.00	29.916 
15:20	43.1	43.1	43.1	74	35.4	0	1	292	0.00	29.916 
15:25	42.9	42.9	42.9	74	35.2	0	1	292	0.00	29.916 
15:30	42.9	42.9	42.9	74	35.2	0	2	292	0.00	29.919 
15:35	42.8	42.8	42.8	74	35.1	1	3	292	0.00	29.919 
15:40	42.2	42.2	42.2	73	34.2	1	4	270	0.00	29.919 
15:45	41.8	41.8	41.8	74	34.1	1	2	270	0.00	29.930 
15:50	41.5	41.5	41.5	74	33.8	3	10	270	0.00	29.930 
15:55	41.3	41.3	41.3	73	33.3	3	7	292	0.00	29.930 
16:00	40.8	40.8	40.8	76	33.8	3	5	292	0.00	29.945 
16:05	40.3	40.3	40.3	78	34.0	1	5	315	0.00	29.945 
16:10	40.1	40.1	40.1	78	33.8	1	3	315	0.00	29.945 
16:15	40.6	40.6	40.6	79	34.6	0	3	315	0.00	29.936 
16:20	41.1	41.1	41.1	78	34.8	1	5	270	0.00	29.936 
16:25	41.5	41.5	41.5	78	35.2	2	6	292	0.00	29.936 
16:30	42.2	42.2	42.2	77	35.5	2	5	292	0.00	29.940 
16:35	42.9	42.9	42.9	73	34.9	2	5	270	0.00	29.940 
16:40	42.9	42.9	42.9	69	33.4	2	4	292	0.00	29.940 
16:45	42.8	42.8	42.8	69	33.3	1	5	315	0.00	29.945 
16:50	42.6	42.6	42.6	68	32.8	1	3	315	0.00	29.945 
16:55	42.6	42.6	42.6	69	33.2	1	4	315	0.00	29.945 
17:00	42.5	42.5	42.5	68	32.7	2	5	315	0.00	29.947 
17:05	42.5	42.5	42.5	67	32.3	1	4	315	0.00	29.947 
17:10	42.5	42.5	42.5	67	32.3	2	4	270	0.00	29.947 
17:15	42.3	42.3	42.3	68	32.5	1	4	270	0.00	29.952 
17:20	42.1	42.1	42.1	70	33.0	1	4	292	0.00	29.952 
17:25	41.6	41.6	41.6	71	32.9	1	5	292	0.00	29.952 
17:30	41.5	41.5	41.5	69	32.1	0	2	292	0.00	29.959 
17:35	41.2	41.2	41.2	68	31.5	1	4	292	0.00	29.959 
17:40	41.1	41.1	41.1	67	31.0	2	5	292	0.00	29.959 
17:45	40.9	40.9	40.9	68	31.2	0	1	292	0.00	29.956 
17:50	41.1	41.1	41.1	68	31.4	0	1	292	0.00	29.956 
17:55	41.1	41.1	41.1	68	31.4	0	1	292	0.00	29.956 
18:00	41.2	41.2	41.2	67	31.1	0	2	292	0.00	29.953 
18:05	41.5	41.5	41.5	65	30.6	1	3	292	0.00	29.953 
18:10	41.6	41.6	41.6	59	28.3	3	6	270	0.00	29.953 
18:15	41.8	41.8	41.8	56	27.3	2	5	270	0.00	29.960 
18:20	41.6	41.6	41.6	55	26.6	3	6	270	0.00	29.960 
18:25	41.3	41.3	41.3	55	26.4	1	4	292	0.00	29.960 
18:30	41.2	41.2	41.2	56	26.7	1	4	270	0.00	29.966 
18:35	40.9	40.9	40.9	57	26.9	1	4	292	0.00	29.966 
18:40	40.6	40.6	40.6	57	26.6	2	5	270	0.00	29.966 
18:45	40.6	40.6	40.6	57	26.6	2	5	270	0.00	29.968 
18:50	40.3	40.3	40.3	58	26.7	1	3	270	0.00	29.968 
18:55	40.2	40.2	40.2	58	26.6	1	4	270	0.00	29.968 
19:00	40.1	40.1	40.1	59	26.9	0	2	292	0.00	29.971 
19:05	39.9	39.9	39.9	59	26.7	0	2	292	0.00	29.971 
19:10	39.8	39.8	39.8	60	27.1	0	2	292	0.00	29.971 
19:15	39.8	39.8	39.8	60	27.1	0	1	292	0.00	29.971 
19:20	39.8	39.8	39.8	60	27.1	0	1	292	0.00	29.971 
19:25	39.6	39.6	39.6	61	27.3	0	1	292	0.00	29.971 
19:30	39.6	39.6	39.6	62	27.7	0	1	292	0.00	29.973 
19:35	39.5	39.5	39.5	62	27.6	0	1	292	0.00	29.973 
19:40	39.5	39.5	39.5	62	27.6	0	1	292	0.00	29.973 
19:45	39.3	39.3	39.3	62	27.4	0	0	---	0.00	29.983 
19:50	39.2	39.2	39.2	63	27.7	0	1	292	0.00	29.983 
19:55	39.1	39.1	39.1	62	27.2	0	1	292	0.00	29.983 
20:00	38.9	38.9	38.9	62	27.0	0	1	292	0.00	29.986 
20:05	38.9	38.9	38.9	62	27.0	0	1	292	0.00	29.986 
20:10	38.9	38.9	38.9	62	27.0	0	1	292	0.00	29.986 
20:15	38.9	38.9	38.9	62	27.0	0	0	---	0.00	29.986 
20:20	38.9	38.9	38.9	62	27.0	0	1	292	0.00	29.986 
20:25	39.1	39.1	39.1	62	27.2	0	1	292	0.00	29.986 
20:30	39.1	39.1	39.1	62	27.2	0	0	---	0.00	29.987 
20:35	39.1	39.1	39.1	62	27.2	0	1	292	0.00	29.987 
20:40	39.1	39.1	39.1	63	27.6	0	1	292	0.00	29.987 
20:45	39.1	39.1	39.1	63	27.6	0	1	292	0.00	29.994 
20:50	39.2	39.2	39.2	62	27.3	1	5	292	0.00	29.994 
20:55	39.2	39.2	39.2	62	27.3	1	3	270	0.00	29.994 
21:00	39.2	39.2	39.2	64	28.1	2	5	292	0.00	30.002 
21:05	38.9	38.9	38.9	67	28.9	1	3	292	0.00	30.002 
21:10	38.6	38.6	38.6	68	29.0	1	4	292	0.00	30.002 
21:15	38.5	38.5	38.5	69	29.2	0	2	292	0.00	29.999 
21:20	38.3	38.3	38.3	70	29.4	0	1	292	0.00	29.999 
21:25	38.2	38.2	38.2	71	29.6	0	1	292	0.00	29.999 
21:30	38.0	38.0	38.0	71	29.4	0	1	292	0.00	29.999 
21:35	38.0	38.0	38.0	72	29.8	0	1	292	0.00	29.999 
21:40	38.0	38.0	38.0	72	29.8	0	2	292	0.00	29.999 
21:45	37.9	37.9	37.9	73	30.0	0	2	292	0.00	29.999 
21:50	37.9	37.9	37.9	73	30.0	0	3	292	0.00	29.999 
21:55	37.9	37.9	37.9	73	30.0	2	6	315	0.00	29.999 
22:00	37.8	37.8	37.8	73	29.9	1	4	270	0.00	30.000 
22:05	37.6	37.6	37.6	73	29.7	2	7	292	0.00	30.000 
22:10	37.6	37.6	37.6	73	29.7	1	7	292	0.00	30.000 
22:15	37.6	37.6	37.6	72	29.4	1	3	292	0.00	29.997 
22:20	37.8	37.8	37.8	72	29.6	1	4	292	0.00	29.997 
22:25	37.8	37.8	37.8	72	29.6	0	2	292	0.00	29.997 
22:30	37.8	37.8	37.8	73	29.9	0	1	292	0.00	30.000 
22:35	37.8	37.8	37.8	74	30.3	0	2	292	0.00	30.000 
22:40	37.6	37.6	37.6	74	30.1	0	1	292	0.00	30.000 
22:45	37.6	37.6	37.6	75	30.4	0	1	292	0.00	30.003 
22:50	37.5	37.5	37.5	75	30.3	0	3	292	0.00	30.003 
22:55	37.5	37.5	37.5	75	30.3	0	1	292	0.00	30.003 
23:00	37.5	37.5	37.5	75	30.3	0	2	292	0.00	30.005 
23:05	37.5	37.5	37.5	75	30.3	0	1	292	0.00	30.005 
23:10	37.5	37.5	37.5	75	30.3	0	2	292	0.00	30.005 
23:15	37.5	37.5	37.5	76	30.6	0	2	292	0.00	30.002 
23:20	37.5	37.5	37.5	76	30.6	0	1	292	0.00	30.002 
23:25	37.3	37.3	37.3	76	30.4	0	1	292	0.00	30.002 
23:30	37.3	37.3	37.3	77	30.8	0	1	292	0.00	30.001 
23:35	37.3	37.3	37.3	77	30.8	0	3	292	0.00	30.001 
23:40	37.3	37.3	37.3	77	30.8	0	2	292	0.00	30.001 
23:45	37.3	37.3	37.3	77	30.8	0	4	292	0.00	30.005 
23:50	37.2	37.2	37.2	77	30.7	0	3	292	0.00	30.005 
23:55	37.2	37.2	37.2	78	31.0	0	2	292	0.00	30.005 

CoCoRaHS
IN-AL-39
A2 Web Hosting
Creative Commons License
GoDaddy
search engine by freefind advanced

loaded 2018-11-17 22:38:04 • last modified 2010-11-18 10:43:29
Privacy PolicyDisclaimer
• wx.awcolley.com is powered by PmWiki v.2002016 •
• all content (unless otherwise noted) © 2018 A W Colley